sensor_id;sensor_type;location;lat;lon;timestamp;P1;durP1;ratioP1;P2;durP2;ratioP2
33160;SDS011;19522;45.656;11.302;2023-06-24T00:01:30;5.40;;;3.17;;
33160;SDS011;19522;45.656;11.302;2023-06-24T00:03:56;6.20;;;3.35;;
33160;SDS011;19522;45.656;11.302;2023-06-24T00:06:22;3.63;;;2.72;;
33160;SDS011;19522;45.656;11.302;2023-06-24T00:08:51;4.28;;;2.92;;
33160;SDS011;19522;45.656;11.302;2023-06-24T00:11:17;5.78;;;3.60;;
33160;SDS011;19522;45.656;11.302;2023-06-24T00:13:43;4.35;;;2.97;;
33160;SDS011;19522;45.656;11.302;2023-06-24T00:16:09;5.72;;;3.53;;
33160;SDS011;19522;45.656;11.302;2023-06-24T00:18:35;6.30;;;3.33;;
33160;SDS011;19522;45.656;11.302;2023-06-24T00:21:06;5.20;;;2.75;;
33160;SDS011;19522;45.656;11.302;2023-06-24T00:23:32;4.47;;;3.25;;
33160;SDS011;19522;45.656;11.302;2023-06-24T00:26:00;5.65;;;3.17;;
33160;SDS011;19522;45.656;11.302;2023-06-24T00:28:26;5.07;;;2.80;;
33160;SDS011;19522;45.656;11.302;2023-06-24T00:30:52;5.88;;;3.35;;
33160;SDS011;19522;45.656;11.302;2023-06-24T00:33:17;4.72;;;3.20;;
33160;SDS011;19522;45.656;11.302;2023-06-24T00:35:45;4.40;;;2.83;;
33160;SDS011;19522;45.656;11.302;2023-06-24T00:38:11;3.92;;;2.83;;
33160;SDS011;19522;45.656;11.302;2023-06-24T00:40:39;3.60;;;2.80;;
33160;SDS011;19522;45.656;11.302;2023-06-24T00:43:05;4.75;;;2.95;;
33160;SDS011;19522;45.656;11.302;2023-06-24T00:45:34;4.63;;;2.90;;
33160;SDS011;19522;45.656;11.302;2023-06-24T00:48:00;4.35;;;2.65;;
33160;SDS011;19522;45.656;11.302;2023-06-24T00:50:26;3.95;;;2.80;;
33160;SDS011;19522;45.656;11.302;2023-06-24T00:52:52;4.13;;;2.60;;
33160;SDS011;19522;45.656;11.302;2023-06-24T00:55:17;4.15;;;3.05;;
33160;SDS011;19522;45.656;11.302;2023-06-24T00:57:46;5.97;;;2.88;;
33160;SDS011;19522;45.656;11.302;2023-06-24T01:00:18;3.55;;;2.63;;
33160;SDS011;19522;45.656;11.302;2023-06-24T01:02:49;4.43;;;2.58;;
33160;SDS011;19522;45.656;11.302;2023-06-24T01:05:15;3.45;;;2.38;;
33160;SDS011;19522;45.656;11.302;2023-06-24T01:07:41;3.30;;;2.40;;
33160;SDS011;19522;45.656;11.302;2023-06-24T01:10:07;5.55;;;2.67;;
33160;SDS011;19522;45.656;11.302;2023-06-24T01:12:35;4.85;;;2.78;;
33160;SDS011;19522;45.656;11.302;2023-06-24T01:15:03;3.60;;;2.40;;
33160;SDS011;19522;45.656;11.302;2023-06-24T01:20:03;3.33;;;2.30;;
33160;SDS011;19522;45.656;11.302;2023-06-24T01:39:30;3.70;;;2.53;;
33160;SDS011;19522;45.656;11.302;2023-06-24T01:42:00;4.00;;;2.40;;
33160;SDS011;19522;45.656;11.302;2023-06-24T01:44:31;3.95;;;2.08;;
33160;SDS011;19522;45.656;11.302;2023-06-24T01:46:58;3.63;;;1.92;;
33160;SDS011;19522;45.656;11.302;2023-06-24T01:49:28;5.70;;;2.80;;
33160;SDS011;19522;45.656;11.302;2023-06-24T01:51:56;3.85;;;2.38;;
33160;SDS011;19522;45.656;11.302;2023-06-24T01:54:24;3.10;;;1.85;;
33160;SDS011;19522;45.656;11.302;2023-06-24T01:56:53;5.07;;;1.90;;
33160;SDS011;19522;45.656;11.302;2023-06-24T01:59:21;3.40;;;2.03;;
33160;SDS011;19522;45.656;11.302;2023-06-24T02:01:48;3.05;;;2.05;;
33160;SDS011;19522;45.656;11.302;2023-06-24T02:04:16;3.70;;;1.90;;
33160;SDS011;19522;45.656;11.302;2023-06-24T02:06:43;5.78;;;2.42;;
33160;SDS011;19522;45.656;11.302;2023-06-24T02:09:10;3.08;;;2.17;;
33160;SDS011;19522;45.656;11.302;2023-06-24T02:11:36;4.05;;;2.22;;
33160;SDS011;19522;45.656;11.302;2023-06-24T02:14:03;4.03;;;2.03;;
33160;SDS011;19522;45.656;11.302;2023-06-24T02:16:31;3.13;;;2.00;;
33160;SDS011;19522;45.656;11.302;2023-06-24T02:18:58;2.80;;;1.83;;
33160;SDS011;19522;45.656;11.302;2023-06-24T02:21:25;3.20;;;2.00;;
33160;SDS011;19522;45.656;11.302;2023-06-24T02:23:51;3.83;;;2.03;;
33160;SDS011;19522;45.656;11.302;2023-06-24T02:26:18;5.22;;;2.00;;
33160;SDS011;19522;45.656;11.302;2023-06-24T02:28:45;2.33;;;1.80;;
33160;SDS011;19522;45.656;11.302;2023-06-24T02:31:11;3.38;;;2.53;;
33160;SDS011;19522;45.656;11.302;2023-06-24T02:33:38;3.20;;;1.88;;
33160;SDS011;19522;45.656;11.302;2023-06-24T02:36:04;3.55;;;2.05;;
33160;SDS011;19522;45.656;11.302;2023-06-24T02:38:29;3.00;;;1.83;;
33160;SDS011;19522;45.656;11.302;2023-06-24T02:40:55;4.53;;;2.03;;
33160;SDS011;19522;45.656;11.302;2023-06-24T02:43:21;3.78;;;2.30;;
33160;SDS011;19522;45.656;11.302;2023-06-24T02:45:47;4.00;;;1.92;;
33160;SDS011;19522;45.656;11.302;2023-06-24T02:48:14;4.97;;;2.20;;
33160;SDS011;19522;45.656;11.302;2023-06-24T02:50:41;4.65;;;2.33;;
33160;SDS011;19522;45.656;11.302;2023-06-24T02:53:10;3.42;;;1.92;;
33160;SDS011;19522;45.656;11.302;2023-06-24T02:55:37;4.32;;;1.60;;
33160;SDS011;19522;45.656;11.302;2023-06-24T02:58:05;3.15;;;1.63;;
33160;SDS011;19522;45.656;11.302;2023-06-24T03:00:36;3.70;;;1.92;;
33160;SDS011;19522;45.656;11.302;2023-06-24T03:03:03;3.00;;;1.77;;
33160;SDS011;19522;45.656;11.302;2023-06-24T03:05:30;3.30;;;2.00;;
33160;SDS011;19522;45.656;11.302;2023-06-24T03:07:59;3.28;;;1.50;;
33160;SDS011;19522;45.656;11.302;2023-06-24T03:10:25;3.13;;;1.85;;
33160;SDS011;19522;45.656;11.302;2023-06-24T03:12:51;2.33;;;1.50;;
33160;SDS011;19522;45.656;11.302;2023-06-24T03:15:17;4.30;;;1.70;;
33160;SDS011;19522;45.656;11.302;2023-06-24T03:17:43;3.88;;;1.60;;
33160;SDS011;19522;45.656;11.302;2023-06-24T03:20:09;2.70;;;1.58;;
33160;SDS011;19522;45.656;11.302;2023-06-24T03:22:35;2.25;;;1.40;;
33160;SDS011;19522;45.656;11.302;2023-06-24T03:25:00;4.63;;;1.60;;
33160;SDS011;19522;45.656;11.302;2023-06-24T03:27:26;2.05;;;1.42;;
33160;SDS011;19522;45.656;11.302;2023-06-24T03:29:51;3.13;;;1.40;;
33160;SDS011;19522;45.656;11.302;2023-06-24T03:32:17;2.40;;;1.40;;
33160;SDS011;19522;45.656;11.302;2023-06-24T03:34:42;2.55;;;1.42;;
33160;SDS011;19522;45.656;11.302;2023-06-24T03:37:08;2.13;;;1.30;;
33160;SDS011;19522;45.656;11.302;2023-06-24T03:39:33;3.10;;;1.38;;
33160;SDS011;19522;45.656;11.302;2023-06-24T03:41:59;2.33;;;1.30;;
33160;SDS011;19522;45.656;11.302;2023-06-24T03:44:25;2.75;;;1.75;;
33160;SDS011;19522;45.656;11.302;2023-06-24T03:46:51;2.95;;;1.60;;
33160;SDS011;19522;45.656;11.302;2023-06-24T03:49:17;2.22;;;1.23;;
33160;SDS011;19522;45.656;11.302;2023-06-24T03:51:43;2.83;;;1.70;;
33160;SDS011;19522;45.656;11.302;2023-06-24T03:54:09;1.88;;;1.20;;
33160;SDS011;19522;45.656;11.302;2023-06-24T03:56:35;2.60;;;1.25;;
33160;SDS011;19522;45.656;11.302;2023-06-24T03:59:00;2.97;;;1.50;;
33160;SDS011;19522;45.656;11.302;2023-06-24T04:01:26;5.28;;;1.98;;
33160;SDS011;19522;45.656;11.302;2023-06-24T04:03:51;2.00;;;1.40;;
33160;SDS011;19522;45.656;11.302;2023-06-24T04:06:17;2.42;;;1.60;;
33160;SDS011;19522;45.656;11.302;2023-06-24T04:08:42;2.83;;;1.50;;
33160;SDS011;19522;45.656;11.302;2023-06-24T04:11:13;3.85;;;1.50;;
33160;SDS011;19522;45.656;11.302;2023-06-24T04:13:39;1.90;;;1.17;;
33160;SDS011;19522;45.656;11.302;2023-06-24T04:16:05;3.10;;;1.63;;
33160;SDS011;19522;45.656;11.302;2023-06-24T04:18:30;2.65;;;1.45;;
33160;SDS011;19522;45.656;11.302;2023-06-24T04:20:56;2.58;;;1.50;;
33160;SDS011;19522;45.656;11.302;2023-06-24T04:23:22;4.82;;;1.60;;
33160;SDS011;19522;45.656;11.302;2023-06-24T04:25:48;3.33;;;1.80;;
33160;SDS011;19522;45.656;11.302;2023-06-24T04:28:14;2.00;;;1.40;;
33160;SDS011;19522;45.656;11.302;2023-06-24T04:30:39;2.97;;;1.60;;
33160;SDS011;19522;45.656;11.302;2023-06-24T04:33:05;3.65;;;1.48;;
33160;SDS011;19522;45.656;11.302;2023-06-24T04:35:30;4.20;;;1.75;;
33160;SDS011;19522;45.656;11.302;2023-06-24T04:37:56;2.38;;;1.42;;
33160;SDS011;19522;45.656;11.302;2023-06-24T04:40:24;2.63;;;1.30;;
33160;SDS011;19522;45.656;11.302;2023-06-24T04:42:50;1.77;;;1.25;;
33160;SDS011;19522;45.656;11.302;2023-06-24T04:45:16;3.72;;;1.40;;
33160;SDS011;19522;45.656;11.302;2023-06-24T04:47:41;1.88;;;1.20;;
33160;SDS011;19522;45.656;11.302;2023-06-24T04:50:07;2.30;;;1.50;;
33160;SDS011;19522;45.656;11.302;2023-06-24T04:52:35;3.53;;;1.50;;
33160;SDS011;19522;45.656;11.302;2023-06-24T04:55:01;2.45;;;1.50;;
33160;SDS011;19522;45.656;11.302;2023-06-24T04:57:27;1.98;;;1.40;;
33160;SDS011;19522;45.656;11.302;2023-06-24T04:59:55;2.10;;;1.45;;
33160;SDS011;19522;45.656;11.302;2023-06-24T05:02:22;2.50;;;1.60;;
33160;SDS011;19522;45.656;11.302;2023-06-24T05:04:47;3.75;;;1.45;;
33160;SDS011;19522;45.656;11.302;2023-06-24T05:07:13;2.00;;;1.20;;
33160;SDS011;19522;45.656;11.302;2023-06-24T05:09:39;2.78;;;1.42;;
33160;SDS011;19522;45.656;11.302;2023-06-24T05:12:05;2.88;;;1.42;;
33160;SDS011;19522;45.656;11.302;2023-06-24T05:14:31;3.08;;;1.20;;
33160;SDS011;19522;45.656;11.302;2023-06-24T05:16:56;1.52;;;1.10;;
33160;SDS011;19522;45.656;11.302;2023-06-24T05:19:22;3.60;;;1.27;;
33160;SDS011;19522;45.656;11.302;2023-06-24T05:21:47;2.22;;;1.00;;
33160;SDS011;19522;45.656;11.302;2023-06-24T05:24:13;2.35;;;1.38;;
33160;SDS011;19522;45.656;11.302;2023-06-24T05:26:38;2.35;;;1.20;;
33160;SDS011;19522;45.656;11.302;2023-06-24T05:29:04;3.08;;;1.55;;
33160;SDS011;19522;45.656;11.302;2023-06-24T05:31:29;2.28;;;1.52;;
33160;SDS011;19522;45.656;11.302;2023-06-24T05:33:55;2.30;;;1.38;;
33160;SDS011;19522;45.656;11.302;2023-06-24T05:36:20;2.90;;;1.40;;
33160;SDS011;19522;45.656;11.302;2023-06-24T05:38:46;2.42;;;1.25;;
33160;SDS011;19522;45.656;11.302;2023-06-24T05:41:13;4.03;;;1.70;;
33160;SDS011;19522;45.656;11.302;2023-06-24T05:43:38;2.47;;;1.40;;
33160;SDS011;19522;45.656;11.302;2023-06-24T05:46:04;4.53;;;1.70;;
33160;SDS011;19522;45.656;11.302;2023-06-24T05:48:29;1.75;;;1.15;;
33160;SDS011;19522;45.656;11.302;2023-06-24T05:50:55;4.03;;;1.42;;
33160;SDS011;19522;45.656;11.302;2023-06-24T05:53:20;3.03;;;1.52;;
33160;SDS011;19522;45.656;11.302;2023-06-24T05:55:46;3.13;;;1.63;;
33160;SDS011;19522;45.656;11.302;2023-06-24T05:58:11;2.97;;;1.50;;
33160;SDS011;19522;45.656;11.302;2023-06-24T06:00:37;2.35;;;1.40;;
33160;SDS011;19522;45.656;11.302;2023-06-24T06:03:02;2.60;;;1.58;;
33160;SDS011;19522;45.656;11.302;2023-06-24T06:05:28;1.80;;;1.05;;
33160;SDS011;19522;45.656;11.302;2023-06-24T06:07:53;2.47;;;1.27;;
33160;SDS011;19522;45.656;11.302;2023-06-24T06:10:19;2.10;;;1.27;;
33160;SDS011;19522;45.656;11.302;2023-06-24T06:12:44;4.32;;;1.23;;
33160;SDS011;19522;45.656;11.302;2023-06-24T06:15:10;3.30;;;1.65;;
33160;SDS011;19522;45.656;11.302;2023-06-24T06:17:36;3.10;;;1.63;;
33160;SDS011;19522;45.656;11.302;2023-06-24T06:20:02;2.88;;;1.42;;
33160;SDS011;19522;45.656;11.302;2023-06-24T06:22:28;2.28;;;1.27;;
33160;SDS011;19522;45.656;11.302;2023-06-24T06:24:53;2.97;;;1.42;;
33160;SDS011;19522;45.656;11.302;2023-06-24T06:27:19;5.13;;;1.45;;
33160;SDS011;19522;45.656;11.302;2023-06-24T06:29:44;3.58;;;1.42;;
33160;SDS011;19522;45.656;11.302;2023-06-24T06:32:10;2.55;;;1.52;;
33160;SDS011;19522;45.656;11.302;2023-06-24T06:34:35;2.47;;;1.17;;
33160;SDS011;19522;45.656;11.302;2023-06-24T06:37:01;1.98;;;1.20;;
33160;SDS011;19522;45.656;11.302;2023-06-24T06:39:27;2.03;;;1.20;;
33160;SDS011;19522;45.656;11.302;2023-06-24T06:41:53;3.75;;;1.52;;
33160;SDS011;19522;45.656;11.302;2023-06-24T06:44:18;2.42;;;1.58;;
33160;SDS011;19522;45.656;11.302;2023-06-24T06:46:44;2.72;;;1.40;;
33160;SDS011;19522;45.656;11.302;2023-06-24T06:49:09;3.50;;;1.67;;
33160;SDS011;19522;45.656;11.302;2023-06-24T06:51:35;3.83;;;1.88;;
33160;SDS011;19522;45.656;11.302;2023-06-24T06:54:01;2.72;;;1.52;;
33160;SDS011;19522;45.656;11.302;2023-06-24T06:56:28;3.17;;;1.40;;
33160;SDS011;19522;45.656;11.302;2023-06-24T06:58:53;2.45;;;1.48;;
33160;SDS011;19522;45.656;11.302;2023-06-24T07:01:22;2.63;;;1.20;;
33160;SDS011;19522;45.656;11.302;2023-06-24T07:03:48;2.63;;;1.40;;
33160;SDS011;19522;45.656;11.302;2023-06-24T07:06:14;2.10;;;1.33;;
33160;SDS011;19522;45.656;11.302;2023-06-24T07:08:39;2.15;;;1.50;;
33160;SDS011;19522;45.656;11.302;2023-06-24T07:11:05;2.28;;;1.20;;
33160;SDS011;19522;45.656;11.302;2023-06-24T07:13:34;3.63;;;1.60;;
33160;SDS011;19522;45.656;11.302;2023-06-24T07:15:59;2.10;;;1.40;;
33160;SDS011;19522;45.656;11.302;2023-06-24T07:18:25;3.13;;;1.40;;
33160;SDS011;19522;45.656;11.302;2023-06-24T07:20:55;4.28;;;1.67;;
33160;SDS011;19522;45.656;11.302;2023-06-24T07:23:21;2.28;;;1.40;;
33160;SDS011;19522;45.656;11.302;2023-06-24T07:25:46;4.18;;;1.75;;
33160;SDS011;19522;45.656;11.302;2023-06-24T07:28:12;3.67;;;2.65;;
33160;SDS011;19522;45.656;11.302;2023-06-24T07:30:37;4.20;;;2.67;;
33160;SDS011;19522;45.656;11.302;2023-06-24T07:33:03;5.03;;;2.40;;
33160;SDS011;19522;45.656;11.302;2023-06-24T07:35:31;4.05;;;2.70;;
33160;SDS011;19522;45.656;11.302;2023-06-24T07:37:57;4.60;;;2.90;;
33160;SDS011;19522;45.656;11.302;2023-06-24T07:40:24;6.03;;;3.28;;
33160;SDS011;19522;45.656;11.302;2023-06-24T07:42:49;5.68;;;3.15;;
33160;SDS011;19522;45.656;11.302;2023-06-24T07:45:15;6.65;;;3.30;;
33160;SDS011;19522;45.656;11.302;2023-06-24T07:47:40;4.57;;;2.70;;
33160;SDS011;19522;45.656;11.302;2023-06-24T07:50:06;4.38;;;3.03;;
33160;SDS011;19522;45.656;11.302;2023-06-24T07:52:32;4.70;;;2.67;;
33160;SDS011;19522;45.656;11.302;2023-06-24T07:54:58;4.07;;;2.63;;
33160;SDS011;19522;45.656;11.302;2023-06-24T07:57:27;5.95;;;3.00;;
33160;SDS011;19522;45.656;11.302;2023-06-24T07:59:53;5.13;;;3.03;;
33160;SDS011;19522;45.656;11.302;2023-06-24T08:02:19;8.25;;;3.42;;
33160;SDS011;19522;45.656;11.302;2023-06-24T08:04:45;6.30;;;3.20;;
33160;SDS011;19522;45.656;11.302;2023-06-24T08:07:10;5.63;;;2.65;;
33160;SDS011;19522;45.656;11.302;2023-06-24T08:09:36;5.78;;;3.22;;
33160;SDS011;19522;45.656;11.302;2023-06-24T08:12:01;5.85;;;2.67;;
33160;SDS011;19522;45.656;11.302;2023-06-24T08:14:27;4.22;;;2.63;;
33160;SDS011;19522;45.656;11.302;2023-06-24T08:16:53;6.28;;;3.35;;
33160;SDS011;19522;45.656;11.302;2023-06-24T08:19:18;4.72;;;2.50;;
33160;SDS011;19522;45.656;11.302;2023-06-24T08:21:44;4.13;;;2.40;;
33160;SDS011;19522;45.656;11.302;2023-06-24T08:24:09;3.75;;;3.00;;
33160;SDS011;19522;45.656;11.302;2023-06-24T08:26:35;3.97;;;2.40;;
33160;SDS011;19522;45.656;11.302;2023-06-24T08:29:00;3.50;;;2.10;;
33160;SDS011;19522;45.656;11.302;2023-06-24T08:31:26;4.10;;;2.58;;
33160;SDS011;19522;45.656;11.302;2023-06-24T08:33:52;3.25;;;2.05;;
33160;SDS011;19522;45.656;11.302;2023-06-24T08:36:21;4.93;;;2.17;;
33160;SDS011;19522;45.656;11.302;2023-06-24T08:38:47;3.15;;;2.08;;
33160;SDS011;19522;45.656;11.302;2023-06-24T08:41:13;3.05;;;1.80;;
33160;SDS011;19522;45.656;11.302;2023-06-24T08:43:38;3.63;;;2.17;;
33160;SDS011;19522;45.656;11.302;2023-06-24T08:46:05;4.28;;;2.05;;
33160;SDS011;19522;45.656;11.302;2023-06-24T08:48:30;3.03;;;1.90;;
33160;SDS011;19522;45.656;11.302;2023-06-24T08:50:58;2.88;;;1.67;;
33160;SDS011;19522;45.656;11.302;2023-06-24T08:53:26;3.33;;;1.58;;
33160;SDS011;19522;45.656;11.302;2023-06-24T08:55:53;3.03;;;1.80;;
33160;SDS011;19522;45.656;11.302;2023-06-24T08:58:21;3.75;;;1.95;;
33160;SDS011;19522;45.656;11.302;2023-06-24T09:00:46;3.88;;;2.03;;
33160;SDS011;19522;45.656;11.302;2023-06-24T09:03:13;4.47;;;2.00;;
33160;SDS011;19522;45.656;11.302;2023-06-24T09:05:38;2.72;;;1.83;;
33160;SDS011;19522;45.656;11.302;2023-06-24T09:08:04;2.53;;;1.70;;
33160;SDS011;19522;45.656;11.302;2023-06-24T09:10:30;4.10;;;2.00;;
33160;SDS011;19522;45.656;11.302;2023-06-24T09:12:57;2.67;;;1.80;;
33160;SDS011;19522;45.656;11.302;2023-06-24T09:15:23;3.13;;;1.67;;
33160;SDS011;19522;45.656;11.302;2023-06-24T09:17:49;2.13;;;1.50;;
33160;SDS011;19522;45.656;11.302;2023-06-24T09:20:14;2.03;;;1.48;;
33160;SDS011;19522;45.656;11.302;2023-06-24T09:22:45;2.63;;;1.80;;
33160;SDS011;19522;45.656;11.302;2023-06-24T09:25:13;2.85;;;1.60;;
33160;SDS011;19522;45.656;11.302;2023-06-24T09:27:46;3.78;;;2.10;;
33160;SDS011;19522;45.656;11.302;2023-06-24T09:30:17;3.38;;;1.85;;
33160;SDS011;19522;45.656;11.302;2023-06-24T09:32:44;1.85;;;1.30;;
33160;SDS011;19522;45.656;11.302;2023-06-24T09:35:10;3.75;;;1.83;;
33160;SDS011;19522;45.656;11.302;2023-06-24T09:37:35;4.13;;;2.08;;
33160;SDS011;19522;45.656;11.302;2023-06-24T09:40:01;2.72;;;1.58;;
33160;SDS011;19522;45.656;11.302;2023-06-24T09:42:30;4.00;;;1.88;;
33160;SDS011;19522;45.656;11.302;2023-06-24T09:44:55;2.78;;;1.70;;
33160;SDS011;19522;45.656;11.302;2023-06-24T09:47:21;2.60;;;1.83;;
33160;SDS011;19522;45.656;11.302;2023-06-24T09:49:50;3.63;;;1.63;;
33160;SDS011;19522;45.656;11.302;2023-06-24T09:52:19;2.45;;;1.45;;
33160;SDS011;19522;45.656;11.302;2023-06-24T09:54:46;2.83;;;1.73;;
33160;SDS011;19522;45.656;11.302;2023-06-24T09:57:18;3.35;;;1.70;;
33160;SDS011;19522;45.656;11.302;2023-06-24T09:59:50;3.75;;;1.52;;
33160;SDS011;19522;45.656;11.302;2023-06-24T10:02:17;2.17;;;1.50;;
33160;SDS011;19522;45.656;11.302;2023-06-24T10:04:43;2.55;;;1.50;;
33160;SDS011;19522;45.656;11.302;2023-06-24T10:07:11;5.78;;;1.73;;
33160;SDS011;19522;45.656;11.302;2023-06-24T10:09:39;1.95;;;1.40;;
33160;SDS011;19522;45.656;11.302;2023-06-24T10:12:05;2.60;;;1.75;;
33160;SDS011;19522;45.656;11.302;2023-06-24T10:14:31;3.80;;;2.00;;
33160;SDS011;19522;45.656;11.302;2023-06-24T10:17:01;2.45;;;1.52;;
33160;SDS011;19522;45.656;11.302;2023-06-24T10:19:30;2.83;;;1.63;;
33160;SDS011;19522;45.656;11.302;2023-06-24T10:22:03;2.50;;;1.50;;
33160;SDS011;19522;45.656;11.302;2023-06-24T10:24:35;5.20;;;2.03;;
33160;SDS011;19522;45.656;11.302;2023-06-24T10:27:06;5.13;;;2.35;;
33160;SDS011;19522;45.656;11.302;2023-06-24T10:29:34;7.30;;;2.42;;
33160;SDS011;19522;45.656;11.302;2023-06-24T10:32:10;3.15;;;1.95;;
33160;SDS011;19522;45.656;11.302;2023-06-24T10:34:42;4.22;;;1.90;;
33160;SDS011;19522;45.656;11.302;2023-06-24T10:44:47;3.70;;;2.15;;
33160;SDS011;19522;45.656;11.302;2023-06-24T10:47:13;2.90;;;1.95;;
33160;SDS011;19522;45.656;11.302;2023-06-24T10:49:39;2.55;;;1.75;;
33160;SDS011;19522;45.656;11.302;2023-06-24T10:52:07;6.63;;;1.83;;
33160;SDS011;19522;45.656;11.302;2023-06-24T10:54:33;3.65;;;2.00;;
33160;SDS011;19522;45.656;11.302;2023-06-24T10:57:00;3.53;;;2.10;;
33160;SDS011;19522;45.656;11.302;2023-06-24T10:59:26;3.30;;;2.08;;
33160;SDS011;19522;45.656;11.302;2023-06-24T11:01:54;2.22;;;1.77;;
33160;SDS011;19522;45.656;11.302;2023-06-24T11:04:20;3.38;;;1.92;;
33160;SDS011;19522;45.656;11.302;2023-06-24T11:07:01;4.75;;;1.88;;
33160;SDS011;19522;45.656;11.302;2023-06-24T11:09:27;3.97;;;2.00;;
33160;SDS011;19522;45.656;11.302;2023-06-24T11:11:53;3.80;;;1.95;;
33160;SDS011;19522;45.656;11.302;2023-06-24T11:14:19;4.72;;;2.10;;
33160;SDS011;19522;45.656;11.302;2023-06-24T11:16:45;3.95;;;1.73;;
33160;SDS011;19522;45.656;11.302;2023-06-24T11:19:11;2.92;;;1.88;;
33160;SDS011;19522;45.656;11.302;2023-06-24T11:21:39;3.40;;;2.30;;
33160;SDS011;19522;45.656;11.302;2023-06-24T11:24:05;2.50;;;1.70;;
33160;SDS011;19522;45.656;11.302;2023-06-24T11:26:31;2.90;;;1.73;;
33160;SDS011;19522;45.656;11.302;2023-06-24T11:28:57;2.90;;;1.85;;
33160;SDS011;19522;45.656;11.302;2023-06-24T11:31:26;3.47;;;2.00;;
33160;SDS011;19522;45.656;11.302;2023-06-24T11:33:51;2.90;;;1.92;;
33160;SDS011;19522;45.656;11.302;2023-06-24T11:36:20;5.20;;;2.20;;
33160;SDS011;19522;45.656;11.302;2023-06-24T11:38:47;3.15;;;1.80;;
33160;SDS011;19522;45.656;11.302;2023-06-24T11:41:16;4.38;;;2.58;;
33160;SDS011;19522;45.656;11.302;2023-06-24T11:43:45;3.20;;;1.63;;
33160;SDS011;19522;45.656;11.302;2023-06-24T11:46:27;2.25;;;1.52;;
33160;SDS011;19522;45.656;11.302;2023-06-24T11:49:05;3.45;;;2.17;;
33160;SDS011;19522;45.656;11.302;2023-06-24T11:51:34;3.63;;;1.90;;
33160;SDS011;19522;45.656;11.302;2023-06-24T11:54:04;2.88;;;1.85;;
33160;SDS011;19522;45.656;11.302;2023-06-24T11:56:34;4.78;;;2.13;;
33160;SDS011;19522;45.656;11.302;2023-06-24T11:59:03;3.90;;;2.00;;
33160;SDS011;19522;45.656;11.302;2023-06-24T12:01:30;4.72;;;2.33;;
33160;SDS011;19522;45.656;11.302;2023-06-24T12:03:57;5.25;;;2.28;;
33160;SDS011;19522;45.656;11.302;2023-06-24T12:06:24;3.13;;;2.10;;
33160;SDS011;19522;45.656;11.302;2023-06-24T12:08:50;3.03;;;2.05;;
33160;SDS011;19522;45.656;11.302;2023-06-24T12:11:15;3.75;;;2.30;;
33160;SDS011;19522;45.656;11.302;2023-06-24T12:13:41;3.15;;;2.08;;
33160;SDS011;19522;45.656;11.302;2023-06-24T12:16:06;5.13;;;2.45;;
33160;SDS011;19522;45.656;11.302;2023-06-24T12:18:32;4.85;;;2.38;;
33160;SDS011;19522;45.656;11.302;2023-06-24T12:20:57;2.90;;;1.88;;
33160;SDS011;19522;45.656;11.302;2023-06-24T12:23:23;3.50;;;2.50;;
33160;SDS011;19522;45.656;11.302;2023-06-24T12:25:48;3.08;;;2.45;;
33160;SDS011;19522;45.656;11.302;2023-06-24T12:28:14;5.13;;;2.45;;
33160;SDS011;19522;45.656;11.302;2023-06-24T12:30:39;3.78;;;2.47;;
33160;SDS011;19522;45.656;11.302;2023-06-24T12:33:05;4.40;;;2.65;;
33160;SDS011;19522;45.656;11.302;2023-06-24T12:35:33;4.55;;;2.40;;
33160;SDS011;19522;45.656;11.302;2023-06-24T12:37:59;6.82;;;2.88;;
33160;SDS011;19522;45.656;11.302;2023-06-24T12:40:24;4.30;;;2.40;;
33160;SDS011;19522;45.656;11.302;2023-06-24T12:42:50;5.00;;;2.50;;
33160;SDS011;19522;45.656;11.302;2023-06-24T12:45:15;4.70;;;2.40;;
33160;SDS011;19522;45.656;11.302;2023-06-24T12:47:44;2.60;;;1.85;;
33160;SDS011;19522;45.656;11.302;2023-06-24T12:50:10;6.43;;;2.47;;
33160;SDS011;19522;45.656;11.302;2023-06-24T12:52:35;3.80;;;2.30;;
33160;SDS011;19522;45.656;11.302;2023-06-24T12:55:02;6.20;;;2.83;;
33160;SDS011;19522;45.656;11.302;2023-06-24T12:57:29;4.05;;;2.50;;
33160;SDS011;19522;45.656;11.302;2023-06-24T12:59:54;7.85;;;2.90;;
33160;SDS011;19522;45.656;11.302;2023-06-24T13:02:20;3.63;;;2.35;;
33160;SDS011;19522;45.656;11.302;2023-06-24T13:04:46;5.18;;;2.72;;
33160;SDS011;19522;45.656;11.302;2023-06-24T13:07:12;5.43;;;2.80;;
33160;SDS011;19522;45.656;11.302;2023-06-24T13:09:38;4.15;;;2.20;;
33160;SDS011;19522;45.656;11.302;2023-06-24T13:12:03;4.05;;;2.90;;
33160;SDS011;19522;45.656;11.302;2023-06-24T13:14:29;4.97;;;2.42;;
33160;SDS011;19522;45.656;11.302;2023-06-24T13:16:55;6.40;;;2.58;;
33160;SDS011;19522;45.656;11.302;2023-06-24T13:19:20;3.80;;;2.65;;
33160;SDS011;19522;45.656;11.302;2023-06-24T13:21:46;6.47;;;2.72;;
33160;SDS011;19522;45.656;11.302;2023-06-24T13:24:12;4.25;;;2.30;;
33160;SDS011;19522;45.656;11.302;2023-06-24T13:26:38;5.13;;;3.00;;
33160;SDS011;19522;45.656;11.302;2023-06-24T13:29:04;4.95;;;2.60;;
33160;SDS011;19522;45.656;11.302;2023-06-24T13:31:29;4.60;;;3.13;;
33160;SDS011;19522;45.656;11.302;2023-06-24T13:33:55;4.95;;;2.88;;
33160;SDS011;19522;45.656;11.302;2023-06-24T13:36:31;8.52;;;3.28;;
33160;SDS011;19522;45.656;11.302;2023-06-24T13:39:03;5.72;;;3.75;;
33160;SDS011;19522;45.656;11.302;2023-06-24T13:41:30;4.32;;;2.67;;
33160;SDS011;19522;45.656;11.302;2023-06-24T13:43:58;5.15;;;2.90;;
33160;SDS011;19522;45.656;11.302;2023-06-24T13:46:24;6.68;;;3.00;;
33160;SDS011;19522;45.656;11.302;2023-06-24T13:48:53;7.03;;;3.03;;
33160;SDS011;19522;45.656;11.302;2023-06-24T13:51:18;6.88;;;4.40;;
33160;SDS011;19522;45.656;11.302;2023-06-24T13:53:45;4.53;;;2.85;;
33160;SDS011;19522;45.656;11.302;2023-06-24T13:56:11;7.10;;;3.15;;
33160;SDS011;19522;45.656;11.302;2023-06-24T13:58:36;7.22;;;3.17;;
33160;SDS011;19522;45.656;11.302;2023-06-24T14:01:02;6.03;;;3.08;;
33160;SDS011;19522;45.656;11.302;2023-06-24T14:03:28;4.75;;;2.88;;
33160;SDS011;19522;45.656;11.302;2023-06-24T14:05:53;3.53;;;2.60;;
33160;SDS011;19522;45.656;11.302;2023-06-24T14:08:19;5.43;;;2.80;;
33160;SDS011;19522;45.656;11.302;2023-06-24T14:10:44;3.05;;;2.20;;
33160;SDS011;19522;45.656;11.302;2023-06-24T14:13:10;3.63;;;2.42;;
33160;SDS011;19522;45.656;11.302;2023-06-24T14:15:35;3.28;;;2.10;;
33160;SDS011;19522;45.656;11.302;2023-06-24T14:18:01;4.20;;;2.40;;
33160;SDS011;19522;45.656;11.302;2023-06-24T14:20:27;3.28;;;2.30;;
33160;SDS011;19522;45.656;11.302;2023-06-24T14:22:53;4.95;;;2.80;;
33160;SDS011;19522;45.656;11.302;2023-06-24T14:25:18;4.97;;;2.80;;
33160;SDS011;19522;45.656;11.302;2023-06-24T14:27:44;4.60;;;2.20;;
33160;SDS011;19522;45.656;11.302;2023-06-24T14:30:09;5.18;;;2.45;;
33160;SDS011;19522;45.656;11.302;2023-06-24T14:32:35;5.65;;;2.63;;
33160;SDS011;19522;45.656;11.302;2023-06-24T14:35:02;5.55;;;2.50;;
33160;SDS011;19522;45.656;11.302;2023-06-24T14:37:28;5.60;;;2.67;;
33160;SDS011;19522;45.656;11.302;2023-06-24T14:39:53;4.00;;;2.40;;
33160;SDS011;19522;45.656;11.302;2023-06-24T14:42:19;5.97;;;2.40;;
33160;SDS011;19522;45.656;11.302;2023-06-24T14:44:47;5.22;;;2.53;;
33160;SDS011;19522;45.656;11.302;2023-06-24T14:47:13;6.38;;;2.55;;
33160;SDS011;19522;45.656;11.302;2023-06-24T14:49:39;2.65;;;2.05;;
33160;SDS011;19522;45.656;11.302;2023-06-24T14:52:04;5.40;;;2.50;;
33160;SDS011;19522;45.656;11.302;2023-06-24T14:54:30;6.05;;;2.50;;
33160;SDS011;19522;45.656;11.302;2023-06-24T14:56:55;5.40;;;2.42;;